TAF Text Data
IDs:
Format:
Raw Decoded Include METAR

Data at: 1513 UTC 04 Aug 2021

TAF for:KMRB (Martinsburg/E West V, WV, US) issued at 1140 UTC 04 Aug 2021
Text:KMRB 041140Z 0412/0512 00000KT P6SM OVC080
Forecast period:1200 to 1500 UTC 04 August 2021
Forecast type:FROM: standard forecast or significant change
Winds:calm
Visibility:6 or more sm (10+ km)
Ceiling:8000 feet AGL
Clouds: overcast cloud deck at 8000 feet AGL
Text:FM041500 07007KT P6SM SCT070
Forecast period:1500 to 1900 UTC 04 August 2021
Forecast type:FROM: standard forecast or significant change
Winds:from the ENE (70 degrees) at 8 MPH (7 knots; 3.6 m/s)
Visibility:6 or more sm (10+ km)
Ceiling:at least 12,000 feet AGL
Clouds: scattered clouds at 7000 feet AGL
Text:FM041900 07007KT P6SM SCT045
Forecast period:1900 UTC 04 August 2021 to 0900 UTC 05 August 2021
Forecast type:FROM: standard forecast or significant change
Winds:from the ENE (70 degrees) at 8 MPH (7 knots; 3.6 m/s)
Visibility:6 or more sm (10+ km)
Ceiling:at least 12,000 feet AGL
Clouds: scattered clouds at 4500 feet AGL
Text:FM050900 00000KT P6SM FEW070
Forecast period:0900 to 1200 UTC 05 August 2021
Forecast type:FROM: standard forecast or significant change
Winds:calm
Visibility:6 or more sm (10+ km)
Ceiling:at least 12,000 feet AGL
Clouds: few clouds at 7000 feet AGL